createdAt,value
2018-01-15T00:02:22.285Z,-0.91
2018-01-15T00:04:49.907Z,-0.96
2018-01-15T00:07:17.525Z,-0.90
2018-01-15T00:09:45.147Z,-0.97
2018-01-15T00:12:13.028Z,-0.95
2018-01-15T00:14:40.656Z,-1.00
2018-01-15T00:17:08.279Z,-1.10
2018-01-15T00:19:35.875Z,-1.00
2018-01-15T00:22:03.573Z,-0.98
2018-01-15T00:24:31.444Z,-0.93
2018-01-15T00:26:59.070Z,-1.06
2018-01-15T00:29:26.680Z,-0.89
2018-01-15T00:31:54.280Z,-0.85
2018-01-15T00:34:21.927Z,-0.82
2018-01-15T00:36:49.528Z,-0.83
2018-01-15T00:39:17.132Z,-0.86
2018-01-15T00:41:44.764Z,-0.78
2018-01-15T00:44:12.355Z,-0.89
2018-01-15T00:46:39.993Z,-0.96
2018-01-15T00:49:07.610Z,-0.94
2018-01-15T00:51:35.216Z,-0.88
2018-01-15T00:54:02.832Z,-0.84
2018-01-15T00:56:30.754Z,-0.91
2018-01-15T00:58:58.624Z,-0.93
2018-01-15T01:01:26.244Z,-0.89
2018-01-15T01:03:54.094Z,-0.86
2018-01-15T01:06:21.729Z,-0.92
2018-01-15T01:08:49.320Z,-0.94
2018-01-15T01:11:17.247Z,-1.00
2018-01-15T01:13:44.838Z,-0.95
2018-01-15T01:16:12.436Z,-0.91
2018-01-15T01:18:40.061Z,-1.02
2018-01-15T01:21:08.008Z,-1.03
2018-01-15T01:23:35.645Z,-0.92
2018-01-15T01:26:03.250Z,-0.88
2018-01-15T01:28:30.838Z,-0.86
2018-01-15T01:30:58.453Z,-0.87
2018-01-15T01:33:26.056Z,-0.80
2018-01-15T01:35:53.704Z,-0.82
2018-01-15T01:38:21.352Z,-0.82
2018-01-15T01:40:48.948Z,-0.80
2018-01-15T01:43:16.874Z,-0.80
2018-01-15T01:45:44.475Z,-0.76
2018-01-15T01:48:12.147Z,-0.80
2018-01-15T01:50:39.742Z,-0.82
2018-01-15T01:53:07.365Z,-0.79
2018-01-15T01:55:34.983Z,-0.82
2018-01-15T01:58:02.851Z,-0.87
2018-01-15T02:00:30.493Z,-0.89
2018-01-15T02:02:58.093Z,-0.86
2018-01-15T02:05:25.726Z,-0.84
2018-01-15T02:07:53.603Z,-0.86
2018-01-15T02:10:21.242Z,-0.83
2018-01-15T02:12:49.238Z,-0.89
2018-01-15T02:15:16.822Z,-0.94
2018-01-15T02:17:44.435Z,-0.99
2018-01-15T02:20:12.059Z,-1.02
2018-01-15T02:22:39.987Z,-1.05
2018-01-15T02:25:07.638Z,-0.98
2018-01-15T02:27:35.231Z,-1.05
2018-01-15T02:30:02.870Z,-1.04
2018-01-15T02:32:30.488Z,-1.00
2018-01-15T02:34:58.082Z,-0.89
2018-01-15T02:37:25.723Z,-0.91
2018-01-15T02:39:53.331Z,-0.86
2018-01-15T02:42:20.948Z,-0.82
2018-01-15T02:44:48.682Z,-0.80
2018-01-15T02:47:16.273Z,-0.72
2018-01-15T02:49:43.909Z,-0.66
2018-01-15T02:52:11.511Z,-0.68
2018-01-15T02:54:39.787Z,-0.74
2018-01-15T02:57:07.401Z,-0.67
2018-01-15T02:59:34.982Z,-0.68
2018-01-15T03:02:02.612Z,-0.69
2018-01-15T03:04:30.207Z,-0.74
2018-01-15T03:06:58.136Z,-0.75
2018-01-15T03:09:26.099Z,-0.70
2018-01-15T03:11:53.968Z,-0.71
2018-01-15T03:14:21.590Z,-0.72
2018-01-15T03:16:49.173Z,-0.66
2018-01-15T03:19:16.810Z,-0.72
2018-01-15T03:21:44.428Z,-0.68
2018-01-15T03:24:12.035Z,-0.79
2018-01-15T03:26:39.726Z,-0.73
2018-01-15T03:29:07.354Z,-0.74
2018-01-15T03:31:34.951Z,-0.68
2018-01-15T03:34:02.602Z,-0.64
2018-01-15T03:36:30.195Z,-0.63
2018-01-15T03:38:57.831Z,-0.67
2018-01-15T03:41:25.460Z,-0.67
2018-01-15T03:43:53.051Z,-0.65
2018-01-15T03:46:20.728Z,-0.74
2018-01-15T03:48:48.341Z,-0.71
2018-01-15T03:51:15.998Z,-0.74
2018-01-15T03:53:43.587Z,-0.68
2018-01-15T03:56:11.172Z,-0.78
2018-01-15T03:58:38.796Z,-0.78
2018-01-15T04:01:06.388Z,-0.74
2018-01-15T04:03:34.018Z,-0.75
2018-01-15T04:06:01.610Z,-0.71
2018-01-15T04:08:29.203Z,-0.74
2018-01-15T04:10:57.063Z,-0.75
2018-01-15T04:13:24.688Z,-0.81
2018-01-15T04:15:52.363Z,-0.89
2018-01-15T04:18:20.244Z,-0.87
2018-01-15T04:20:47.836Z,-0.84
2018-01-15T04:23:15.497Z,-0.86
2018-01-15T04:25:43.360Z,-0.76
2018-01-15T04:28:11.021Z,-0.78
2018-01-15T04:30:38.643Z,-0.71
2018-01-15T04:33:06.247Z,-0.62
2018-01-15T04:35:33.873Z,-0.60
2018-01-15T04:38:01.468Z,-0.73
2018-01-15T04:40:29.112Z,-0.67
2018-01-15T04:42:56.708Z,-0.66
2018-01-15T04:45:24.305Z,-0.64
2018-01-15T04:47:52.013Z,-0.63
2018-01-15T04:50:19.679Z,-0.63
2018-01-15T04:52:47.315Z,-0.55
2018-01-15T04:55:14.912Z,-0.55
2018-01-15T04:57:42.598Z,-0.56
2018-01-15T05:00:10.214Z,-0.50
2018-01-15T05:02:37.794Z,-0.59
2018-01-15T05:05:05.438Z,-0.64
2018-01-15T05:07:33.036Z,-0.60
2018-01-15T05:10:00.636Z,-0.60
2018-01-15T05:12:28.581Z,-0.56
2018-01-15T05:14:56.179Z,-0.53
2018-01-15T05:17:23.895Z,-0.53
2018-01-15T05:19:51.486Z,-0.51
2018-01-15T05:22:19.172Z,-0.58
2018-01-15T05:24:46.807Z,-0.53
2018-01-15T05:27:14.432Z,-0.47
2018-01-15T05:29:42.037Z,-0.48
2018-01-15T05:32:09.684Z,-0.44
2018-01-15T05:34:37.302Z,-0.43
2018-01-15T05:37:04.910Z,-0.54
2018-01-15T05:39:32.546Z,-0.54
2018-01-15T05:42:00.153Z,-0.52
2018-01-15T05:44:28.694Z,-0.50
2018-01-15T05:46:56.319Z,-0.46
2018-01-15T05:49:24.204Z,-0.49
2018-01-15T05:51:51.806Z,-0.50
2018-01-15T05:54:20.041Z,-0.54
2018-01-15T05:56:47.908Z,-0.49
2018-01-15T05:59:15.513Z,-0.54
2018-01-15T06:01:43.124Z,-0.50
2018-01-15T06:04:10.962Z,-0.46
2018-01-15T06:06:38.580Z,-0.39
2018-01-15T06:09:06.427Z,-0.43
2018-01-15T06:11:34.084Z,-0.44
2018-01-15T06:14:01.679Z,-0.40
2018-01-15T06:16:29.406Z,-0.33
2018-01-15T06:18:57.809Z,-0.36
2018-01-15T06:21:25.674Z,-0.44
2018-01-15T06:23:53.319Z,-0.37
2018-01-15T06:26:20.997Z,-0.43
2018-01-15T06:28:48.615Z,-0.39
2018-01-15T06:31:16.260Z,-0.44
2018-01-15T06:33:43.882Z,-0.47
2018-01-15T06:36:11.858Z,-0.44
2018-01-15T06:38:39.451Z,-0.47
2018-01-15T06:41:07.073Z,-0.50
2018-01-15T06:43:34.712Z,-0.51
2018-01-15T06:46:02.312Z,-0.55
2018-01-15T06:48:30.057Z,-0.56
2018-01-15T06:50:57.660Z,-0.56
2018-01-15T06:53:25.291Z,-0.63
2018-01-15T06:55:53.255Z,-0.59
2018-01-15T06:58:20.880Z,-0.62
2018-01-15T07:00:48.525Z,-0.59
2018-01-15T07:03:16.453Z,-0.67
2018-01-15T07:05:44.092Z,-0.67
2018-01-15T07:08:11.703Z,-0.68
2018-01-15T07:10:39.654Z,-0.68
2018-01-15T07:13:07.635Z,-0.64
2018-01-15T07:15:35.276Z,-0.80
2018-01-15T07:18:02.917Z,-0.74
2018-01-15T07:20:30.548Z,-0.73
2018-01-15T07:22:58.178Z,-0.70
2018-01-15T07:25:25.835Z,-0.69
2018-01-15T07:27:53.447Z,-0.74
2018-01-15T07:30:21.113Z,-0.84
2018-01-15T07:32:48.744Z,-0.85
2018-01-15T07:35:16.377Z,-0.87
2018-01-15T07:37:44.034Z,-0.86
2018-01-15T07:40:11.643Z,-0.86
2018-01-15T07:42:39.271Z,-0.92
2018-01-15T07:45:07.477Z,-0.89
2018-01-15T07:47:35.156Z,-0.82
2018-01-15T07:50:02.876Z,-0.86
2018-01-15T07:52:30.500Z,-0.93
2018-01-15T07:54:58.123Z,-0.88
2018-01-15T07:57:25.805Z,-0.85
2018-01-15T07:59:53.403Z,-0.89
2018-01-15T08:02:21.952Z,-0.97
2018-01-15T08:04:49.612Z,-0.90
2018-01-15T08:07:17.499Z,-0.85
2018-01-15T08:09:45.133Z,-0.90
2018-01-15T08:12:12.731Z,-0.82
2018-01-15T08:14:41.176Z,-0.79
2018-01-15T08:17:11.043Z,-0.81
2018-01-15T08:19:38.636Z,-0.84
2018-01-15T08:22:07.307Z,-0.77
2018-01-15T08:24:35.175Z,-0.78
2018-01-15T08:27:03.151Z,-0.83
2018-01-15T08:29:31.116Z,-0.76
2018-01-15T08:31:59.209Z,-0.69
2018-01-15T08:34:27.160Z,-0.64
2018-01-15T08:36:56.772Z,-0.62
2018-01-15T08:39:24.430Z,-0.59
2018-01-15T08:41:52.583Z,-0.59
2018-01-15T08:44:20.482Z,-0.52
2018-01-15T08:46:48.141Z,-0.54
2018-01-15T08:49:15.728Z,-0.46
2018-01-15T08:51:43.391Z,-0.45
2018-01-15T08:54:10.993Z,-0.38
2018-01-15T08:56:38.608Z,-0.43
2018-01-15T08:59:06.553Z,-0.33
2018-01-15T09:01:34.155Z,-0.30
2018-01-15T09:04:01.790Z,-0.21
2018-01-15T09:06:29.381Z,-0.23
2018-01-15T09:08:57.428Z,-0.17
2018-01-15T09:11:25.388Z,-0.13
2018-01-15T09:57:04.891Z,0.95
2018-01-15T09:59:32.464Z,0.96
2018-01-15T10:02:00.023Z,0.93
2018-01-15T10:04:27.930Z,1.07
2018-01-15T10:06:55.492Z,1.13
2018-01-15T10:09:23.096Z,1.21
2018-01-15T10:11:50.678Z,1.19
2018-01-15T10:14:18.229Z,1.14
2018-01-15T10:16:45.816Z,1.27
2018-01-15T10:19:13.360Z,1.29
2018-01-15T10:21:41.256Z,1.40
2018-01-15T10:24:09.123Z,1.39
2018-01-15T10:26:36.680Z,1.35
2018-01-15T10:29:04.329Z,1.38
2018-01-15T10:31:31.942Z,1.36
2018-01-15T10:33:59.508Z,1.47
2018-01-15T10:36:27.109Z,1.45
2018-01-15T10:38:54.667Z,1.49
2018-01-15T10:41:22.249Z,1.46
2018-01-15T10:43:49.902Z,1.53
2018-01-15T10:46:18.385Z,1.61
2018-01-15T10:48:45.932Z,1.62
2018-01-15T10:51:13.512Z,1.71
2018-01-15T10:53:41.065Z,1.84
2018-01-15T10:56:08.709Z,1.87
2018-01-15T10:58:36.323Z,1.86
2018-01-15T11:01:09.713Z,1.93
2018-01-15T11:03:37.262Z,2.00
2018-01-15T11:06:04.835Z,2.03
2018-01-15T11:08:32.413Z,2.07
2018-01-15T11:10:59.992Z,2.12
2018-01-15T11:13:27.563Z,2.23
2018-01-15T11:15:55.177Z,2.15
2018-01-15T11:18:22.805Z,2.29
2018-01-15T11:20:50.355Z,2.31
2018-01-15T11:23:17.913Z,2.34
2018-01-15T11:25:45.508Z,2.50
2018-01-15T11:28:13.086Z,2.58
2018-01-15T11:30:40.729Z,2.59
2018-01-15T11:33:08.317Z,2.64
2018-01-15T11:35:35.891Z,2.70
2018-01-15T11:38:03.635Z,2.78
2018-01-15T11:40:31.222Z,2.80
2018-01-15T11:42:58.814Z,2.84
2018-01-15T11:45:26.709Z,2.84
2018-01-15T11:47:54.304Z,2.90
2018-01-15T11:50:21.891Z,2.86
2018-01-15T11:52:49.803Z,2.96
2018-01-15T11:55:17.345Z,3.08
2018-01-15T11:57:44.957Z,2.98
2018-01-15T12:00:12.540Z,3.05
2018-01-15T12:02:40.493Z,3.02
2018-01-15T12:05:08.140Z,3.09
2018-01-15T12:07:35.752Z,3.05
2018-01-15T12:10:03.330Z,3.17
2018-01-15T12:12:31.223Z,3.16
2018-01-15T12:14:58.781Z,3.18
2018-01-15T12:17:26.385Z,3.23
2018-01-15T12:19:54.415Z,3.25
2018-01-15T12:22:22.381Z,3.26
2018-01-15T12:24:49.983Z,3.33
2018-01-15T12:27:17.603Z,3.29
2018-01-15T12:29:45.173Z,3.32
2018-01-15T12:32:12.817Z,3.29
2018-01-15T12:34:40.369Z,3.34
2018-01-15T12:37:07.985Z,3.38
2018-01-15T12:39:35.923Z,3.36
2018-01-15T12:42:03.598Z,3.40
2018-01-15T12:44:31.204Z,3.53
2018-01-15T12:46:58.795Z,3.54
2018-01-15T12:49:26.671Z,3.64
2018-01-15T12:51:54.289Z,3.72
2018-01-15T12:54:21.904Z,3.69
2018-01-15T12:56:49.497Z,3.67
2018-01-15T12:59:17.062Z,3.78
2018-01-15T13:01:44.993Z,3.77
2018-01-15T13:04:12.563Z,3.88
2018-01-15T13:06:51.965Z,3.97
2018-01-15T13:09:19.555Z,3.98
2018-01-15T13:11:47.126Z,4.01
2018-01-15T13:14:14.701Z,4.01
2018-01-15T13:16:42.540Z,3.88
2018-01-15T13:19:10.112Z,3.91
2018-01-15T13:21:37.679Z,3.90
2018-01-15T13:24:05.217Z,3.85
2018-01-15T13:26:32.816Z,3.78
2018-01-15T13:29:00.420Z,3.79
2018-01-15T13:31:28.036Z,3.84
2018-01-15T13:33:55.606Z,3.93
2018-01-15T13:36:23.215Z,3.87
2018-01-15T13:38:50.811Z,3.80
2018-01-15T13:41:18.396Z,3.87
2018-01-15T13:43:45.995Z,3.86
2018-01-15T13:46:13.683Z,3.77
2018-01-15T13:48:41.285Z,3.64
2018-01-15T13:51:08.860Z,3.72
2018-01-15T13:53:36.767Z,3.77
2018-01-15T13:56:04.397Z,3.67
2018-01-15T13:58:32.320Z,3.63
2018-01-15T14:00:59.927Z,3.67
2018-01-15T14:03:27.506Z,3.74
2018-01-15T14:05:55.120Z,3.67
2018-01-15T14:08:22.758Z,3.70
2018-01-15T14:10:50.325Z,3.61
2018-01-15T14:13:17.936Z,3.58
2018-01-15T14:15:45.607Z,3.59
2018-01-15T14:18:13.257Z,3.60
2018-01-15T14:20:40.852Z,3.49
2018-01-15T14:23:08.452Z,3.47
2018-01-15T14:25:36.039Z,3.46
2018-01-15T14:28:03.659Z,3.39
2018-01-15T14:30:31.339Z,3.34
2018-01-15T14:32:58.939Z,3.36
2018-01-15T14:35:26.538Z,3.37
2018-01-15T14:37:54.503Z,3.44
2018-01-15T14:40:22.083Z,3.29
2018-01-15T14:42:49.668Z,3.31
2018-01-15T14:45:17.230Z,3.32
2018-01-15T14:47:45.050Z,3.24
2018-01-15T14:50:12.608Z,3.24
2018-01-15T14:52:40.182Z,3.17
2018-01-15T14:55:07.795Z,3.12
2018-01-15T14:57:35.635Z,3.14
2018-01-15T15:00:03.303Z,3.09
2018-01-15T15:02:30.924Z,3.13
2018-01-15T15:04:58.504Z,3.18
2018-01-15T15:07:26.459Z,3.15
2018-01-15T15:09:54.268Z,3.10
2018-01-15T15:12:21.892Z,3.09
2018-01-15T15:14:49.514Z,3.02
2018-01-15T15:17:17.546Z,3.01
2018-01-15T15:19:45.153Z,3.00
2018-01-15T15:22:12.735Z,3.07
2018-01-15T15:24:40.410Z,3.06
2018-01-15T15:27:08.033Z,3.07
2018-01-15T15:29:35.755Z,2.99
2018-01-15T15:32:03.443Z,2.98
2018-01-15T15:34:31.079Z,2.98
2018-01-15T15:36:58.830Z,2.95
2018-01-15T15:39:26.787Z,2.93
2018-01-15T15:41:54.337Z,2.90
2018-01-15T15:44:21.926Z,2.90
2018-01-15T15:46:49.492Z,2.83
2018-01-15T15:49:17.065Z,2.83
2018-01-15T15:51:44.906Z,2.79
2018-01-15T15:54:12.500Z,2.81
2018-01-15T15:56:40.082Z,2.81
2018-01-15T15:59:07.675Z,2.82
2018-01-15T16:01:35.259Z,2.81
2018-01-15T16:04:03.071Z,2.73
2018-01-15T16:06:30.877Z,2.78
2018-01-15T16:08:58.491Z,2.78
2018-01-15T16:11:26.077Z,2.70
2018-01-15T16:13:53.970Z,2.80
2018-01-15T16:16:21.525Z,2.73
2018-01-15T16:18:49.102Z,2.74
2018-01-15T16:21:16.926Z,2.70
2018-01-15T16:23:44.569Z,2.63
2018-01-15T16:26:12.171Z,2.64
2018-01-15T16:28:39.730Z,2.65
2018-01-15T16:31:07.415Z,2.67
2018-01-15T16:33:35.017Z,2.65
2018-01-15T16:36:02.617Z,2.61
2018-01-15T16:38:30.500Z,2.58
2018-01-15T16:40:58.069Z,2.63
2018-01-15T16:43:25.657Z,2.59
2018-01-15T16:45:53.302Z,2.56
2018-01-15T16:48:20.934Z,2.56
2018-01-15T16:50:48.536Z,2.58
2018-01-15T16:53:16.102Z,2.62
2018-01-15T16:55:43.702Z,2.59
2018-01-15T16:58:11.281Z,2.64
2018-01-15T17:00:38.925Z,2.58
2018-01-15T17:03:06.473Z,2.62
2018-01-15T17:05:34.329Z,2.70
2018-01-15T17:08:01.976Z,2.67
2018-01-15T17:10:29.584Z,2.72
2018-01-15T17:12:57.139Z,2.70
2018-01-15T17:15:24.704Z,2.69
2018-01-15T17:17:52.265Z,2.66
2018-01-15T17:20:19.878Z,2.69
2018-01-15T17:22:47.446Z,2.63
2018-01-15T17:25:15.085Z,2.65
2018-01-15T17:27:42.660Z,2.66
2018-01-15T17:30:10.314Z,2.66
2018-01-15T17:32:38.222Z,2.65
2018-01-15T17:35:06.145Z,2.69
2018-01-15T17:37:33.809Z,2.58
2018-01-15T17:40:01.400Z,2.67
2018-01-15T17:42:29.060Z,2.70
2018-01-15T17:44:56.648Z,2.65
2018-01-15T17:47:24.273Z,2.62
2018-01-15T17:49:51.871Z,2.66
2018-01-15T17:52:19.564Z,2.64
2018-01-15T17:54:47.155Z,2.61
2018-01-15T17:57:14.701Z,2.58
2018-01-15T17:59:42.318Z,2.62
2018-01-15T18:02:09.945Z,2.68
2018-01-15T18:04:37.784Z,2.69
2018-01-15T18:07:05.347Z,2.67
2018-01-15T18:09:32.939Z,2.66
2018-01-15T18:12:00.503Z,2.66
2018-01-15T18:14:28.100Z,2.63
2018-01-15T18:16:55.719Z,2.67
2018-01-15T18:19:23.377Z,2.74
2018-01-15T18:21:51.045Z,2.75
2018-01-15T18:24:18.635Z,2.71
2018-01-15T18:26:46.592Z,2.73
2018-01-15T18:29:14.235Z,2.78
2018-01-15T18:31:41.898Z,2.73
2018-01-15T18:34:09.490Z,2.69
2018-01-15T18:36:37.420Z,2.71
2018-01-15T18:39:05.230Z,2.67
2018-01-15T18:41:33.164Z,2.70
2018-01-15T18:44:00.818Z,2.66
2018-01-15T18:46:28.785Z,2.58
2018-01-15T18:48:56.453Z,2.61
2018-01-15T18:51:24.107Z,2.63
2018-01-15T18:53:51.844Z,2.63
2018-01-15T18:56:19.700Z,2.66
2018-01-15T18:58:47.285Z,2.71
2018-01-15T19:01:14.896Z,2.77
2018-01-15T19:03:42.480Z,2.73
2018-01-15T19:06:10.100Z,2.73
2018-01-15T19:08:37.691Z,2.68
2018-01-15T19:11:05.336Z,2.66
2018-01-15T19:13:32.927Z,2.65
2018-01-15T19:16:00.845Z,2.66
2018-01-15T19:18:28.533Z,2.62
2018-01-15T19:20:56.117Z,2.65
2018-01-15T19:23:23.731Z,2.64
2018-01-15T19:25:51.393Z,2.66
2018-01-15T19:28:18.971Z,2.63
2018-01-15T19:30:46.658Z,2.59
2018-01-15T19:33:14.240Z,2.60
2018-01-15T19:35:44.830Z,2.56
2018-01-15T19:41:16.871Z,2.47
2018-01-15T19:44:03.053Z,2.40
2018-01-15T19:46:36.283Z,2.35
2018-01-15T19:49:09.685Z,2.37
2018-01-15T19:51:42.986Z,2.43
2018-01-15T19:54:16.159Z,2.41
2018-01-15T19:56:49.533Z,2.42
2018-01-15T19:59:22.802Z,2.44
2018-01-15T20:01:56.010Z,2.37
2018-01-15T20:04:29.106Z,2.37
2018-01-15T20:07:02.394Z,2.44
2018-01-15T20:09:35.956Z,2.42
2018-01-15T20:12:03.615Z,2.47
2018-01-15T20:14:31.238Z,2.42
2018-01-15T20:16:58.839Z,2.43
2018-01-15T20:19:26.469Z,2.44
2018-01-15T20:21:54.045Z,2.44
2018-01-15T20:24:21.654Z,2.48
2018-01-15T20:26:49.252Z,2.48
2018-01-15T20:29:16.792Z,2.50
2018-01-15T20:31:44.410Z,2.47
2018-01-15T20:34:11.973Z,2.49
2018-01-15T20:36:39.551Z,2.47
2018-01-15T20:39:07.234Z,2.47
2018-01-15T20:41:34.775Z,2.48
2018-01-15T20:44:02.376Z,2.49
2018-01-15T20:46:29.919Z,2.43
2018-01-15T20:48:57.545Z,2.49
2018-01-15T20:51:25.101Z,2.51
2018-01-15T20:53:52.994Z,2.45
2018-01-15T20:56:20.812Z,2.50
2018-01-15T20:58:48.792Z,2.51
2018-01-15T21:01:16.465Z,2.47
2018-01-15T21:03:44.057Z,2.51
2018-01-15T21:06:12.027Z,2.50
2018-01-15T21:08:39.592Z,2.51
2018-01-15T21:11:07.164Z,2.46
2018-01-15T21:13:34.807Z,2.47
2018-01-15T21:16:02.414Z,2.53
2018-01-15T21:18:29.950Z,2.60
2018-01-15T21:20:57.565Z,2.59
2018-01-15T21:23:25.193Z,2.60
2018-01-15T21:25:52.796Z,2.56
2018-01-15T21:28:20.375Z,2.62
2018-01-15T21:30:47.918Z,2.60
2018-01-15T21:33:15.517Z,2.57
2018-01-15T21:35:43.086Z,2.64
2018-01-15T21:38:10.630Z,2.64
2018-01-15T21:40:38.205Z,2.63
2018-01-15T21:43:05.810Z,2.54
2018-01-15T21:45:33.419Z,2.64
2018-01-15T21:48:01.003Z,2.58
2018-01-15T21:50:28.550Z,2.49
2018-01-15T21:52:56.139Z,2.52
2018-01-15T21:55:23.684Z,2.54
2018-01-15T21:57:51.232Z,2.51
2018-01-15T22:00:18.820Z,2.48
2018-01-15T22:02:46.655Z,2.53
2018-01-15T22:05:14.217Z,2.56
2018-01-15T22:07:41.774Z,2.51
2018-01-15T22:10:09.357Z,2.55
2018-01-15T22:12:36.971Z,2.52
2018-01-15T22:15:04.802Z,2.56
2018-01-15T22:17:32.390Z,2.60
2018-01-15T22:19:59.937Z,2.57
2018-01-15T22:22:27.545Z,2.59
2018-01-15T22:24:55.659Z,2.58
2018-01-15T22:27:23.208Z,2.64
2018-01-15T22:29:50.880Z,2.60
2018-01-15T22:32:18.862Z,2.61
2018-01-15T22:34:46.805Z,2.61
2018-01-15T22:37:15.626Z,2.53
2018-01-15T22:39:43.277Z,2.52
2018-01-15T22:42:10.852Z,2.43
2018-01-15T22:44:38.473Z,2.50
2018-01-15T22:47:06.374Z,2.49
2018-01-15T22:49:34.478Z,2.36
2018-01-15T22:52:02.313Z,2.38
2018-01-15T22:54:29.965Z,2.44
2018-01-15T22:56:57.549Z,2.45
2018-01-15T22:59:25.124Z,2.46
2018-01-15T23:01:52.675Z,2.45
2018-01-15T23:04:20.529Z,2.47
2018-01-15T23:06:48.129Z,2.43
2018-01-15T23:09:15.703Z,2.31
2018-01-15T23:11:43.287Z,2.34
2018-01-15T23:14:10.860Z,2.39
2018-01-15T23:16:38.455Z,2.39
2018-01-15T23:19:06.043Z,2.38
2018-01-15T23:21:33.620Z,2.36
2018-01-15T23:24:01.221Z,2.39
2018-01-15T23:26:28.788Z,2.41
2018-01-15T23:28:56.374Z,2.42
2018-01-15T23:31:23.949Z,2.40
2018-01-15T23:33:51.505Z,2.36
2018-01-15T23:36:19.097Z,2.32
2018-01-15T23:38:46.765Z,2.30
2018-01-15T23:41:14.332Z,2.36
2018-01-15T23:43:41.883Z,2.33
2018-01-15T23:46:09.473Z,2.34
2018-01-15T23:48:37.032Z,2.37
2018-01-15T23:51:04.900Z,2.28
2018-01-15T23:53:32.521Z,2.29
2018-01-15T23:56:00.062Z,2.22
2018-01-15T23:58:27.667Z,2.20
